sensor_id;sensor_type;location;lat;lon;timestamp;pressure;altitude;pressure_sealevel;temperature;humidity
51876;BME280;34054;52.100;5.116;2023-02-08T00:00:02;103748.69;;;1.38;87.21
51876;BME280;34054;52.100;5.116;2023-02-08T00:00:36;103750.41;;;1.39;87.35
51876;BME280;34054;52.100;5.116;2023-02-08T00:01:10;103745.28;;;1.36;87.21
51876;BME280;34054;52.100;5.116;2023-02-08T00:01:43;103745.16;;;1.37;87.28
51876;BME280;34054;52.100;5.116;2023-02-08T00:02:16;103759.03;;;1.43;87.36
51876;BME280;34054;52.100;5.116;2023-02-08T00:02:48;103749.53;;;1.38;87.52
51876;BME280;34054;52.100;5.116;2023-02-08T00:03:20;103747.38;;;1.32;87.44
51876;BME280;34054;52.100;5.116;2023-02-08T00:03:52;103752.22;;;1.38;87.69
51876;BME280;34054;52.100;5.116;2023-02-08T00:04:24;103749.06;;;1.33;87.49
51876;BME280;34054;52.100;5.116;2023-02-08T00:04:57;103756.38;;;1.20;87.89
51876;BME280;34054;52.100;5.116;2023-02-08T00:05:29;103761.72;;;1.20;88.36
51876;BME280;34054;52.100;5.116;2023-02-08T00:06:00;103747.13;;;1.24;88.44
51876;BME280;34054;52.100;5.116;2023-02-08T00:06:33;103752.84;;;1.19;88.57
51876;BME280;34054;52.100;5.116;2023-02-08T00:07:05;103753.69;;;1.20;88.78
51876;BME280;34054;52.100;5.116;2023-02-08T00:07:36;103747.38;;;1.09;89.12
51876;BME280;34054;52.100;5.116;2023-02-08T00:08:10;103748.34;;;1.08;89.44
51876;BME280;34054;52.100;5.116;2023-02-08T00:08:42;103745.41;;;1.12;89.51
51876;BME280;34054;52.100;5.116;2023-02-08T00:09:15;103743.25;;;1.17;89.42
51876;BME280;34054;52.100;5.116;2023-02-08T00:09:47;103746.91;;;1.27;89.02
51876;BME280;34054;52.100;5.116;2023-02-08T00:10:19;103745.28;;;1.36;88.77
51876;BME280;34054;52.100;5.116;2023-02-08T00:10:50;103751.88;;;1.32;88.81
51876;BME280;34054;52.100;5.116;2023-02-08T00:11:23;103747.13;;;1.24;88.81
51876;BME280;34054;52.100;5.116;2023-02-08T00:11:55;103744.22;;;1.27;88.74
51876;BME280;34054;52.100;5.116;2023-02-08T00:12:27;103744.44;;;1.24;88.88
51876;BME280;34054;52.100;5.116;2023-02-08T00:12:59;103750.03;;;1.21;89.03
51876;BME280;34054;52.100;5.116;2023-02-08T00:13:31;103748.34;;;1.20;88.79
51876;BME280;34054;52.100;5.116;2023-02-08T00:14:04;103744.31;;;1.25;89.00
51876;BME280;34054;52.100;5.116;2023-02-08T00:14:36;103752.47;;;1.35;88.63
51876;BME280;34054;52.100;5.116;2023-02-08T00:15:08;103745.28;;;1.36;88.30
51876;BME280;34054;52.100;5.116;2023-02-08T00:15:41;103748.19;;;1.33;88.04
51876;BME280;34054;52.100;5.116;2023-02-08T00:16:14;103747.13;;;1.24;88.22
51876;BME280;34054;52.100;5.116;2023-02-08T00:16:46;103753.09;;;1.28;88.79
51876;BME280;34054;52.100;5.116;2023-02-08T00:17:19;103752.00;;;1.19;88.60
51876;BME280;34054;52.100;5.116;2023-02-08T00:17:50;103748.69;;;1.15;88.94
51876;BME280;34054;52.100;5.116;2023-02-08T00:18:22;103748.09;;;1.12;89.25
51876;BME280;34054;52.100;5.116;2023-02-08T00:18:53;103747.16;;;1.01;89.35
51876;BME280;34054;52.100;5.116;2023-02-08T00:19:26;103744.19;;;1.04;89.71
51876;BME280;34054;52.100;5.116;2023-02-08T00:19:58;103747.50;;;0.97;89.87
51876;BME280;34054;52.100;5.116;2023-02-08T00:20:29;103755.19;;;1.01;90.34
51876;BME280;34054;52.100;5.116;2023-02-08T00:21:07;103748.47;;;1.07;90.29
51876;BME280;34054;52.100;5.116;2023-02-08T00:21:39;103742.25;;;1.06;90.07
51876;BME280;34054;52.100;5.116;2023-02-08T00:22:11;103744.19;;;1.04;90.24
51876;BME280;34054;52.100;5.116;2023-02-08T00:22:43;103742.25;;;1.06;90.39
51876;BME280;34054;52.100;5.116;2023-02-08T00:23:17;103743.84;;;1.09;90.25
51876;BME280;34054;52.100;5.116;2023-02-08T00:23:49;103737.50;;;1.10;90.32
51876;BME280;34054;52.100;5.116;2023-02-08T00:24:21;103746.28;;;1.12;90.05
51876;BME280;34054;52.100;5.116;2023-02-08T00:24:53;103743.47;;;1.14;90.02
51876;BME280;34054;52.100;5.116;2023-02-08T00:25:25;103743.34;;;1.15;89.87
51876;BME280;34054;52.100;5.116;2023-02-08T00:25:57;103745.31;;;1.13;90.18
51876;BME280;34054;52.100;5.116;2023-02-08T00:26:29;103748.34;;;1.08;90.21
51876;BME280;34054;52.100;5.116;2023-02-08T00:27:01;103741.16;;;1.09;90.30
51876;BME280;34054;52.100;5.116;2023-02-08T00:27:33;103738.50;;;1.20;90.19
51876;BME280;34054;52.100;5.116;2023-02-08T00:28:06;103744.22;;;1.27;89.74
51876;BME280;34054;52.100;5.116;2023-02-08T00:28:38;103738.34;;;1.22;89.65
51876;BME280;34054;52.100;5.116;2023-02-08T00:29:11;103736.56;;;1.22;89.74
51876;BME280;34054;52.100;5.116;2023-02-08T00:29:43;103732.63;;;1.27;89.55
51876;BME280;34054;52.100;5.116;2023-02-08T00:30:14;103736.56;;;1.22;89.60
51876;BME280;34054;52.100;5.116;2023-02-08T00:30:47;103732.41;;;1.30;89.40
51876;BME280;34054;52.100;5.116;2023-02-08T00:31:19;103732.41;;;1.30;89.50
51876;BME280;34054;52.100;5.116;2023-02-08T00:31:51;103719.63;;;1.33;89.22
51876;BME280;34054;52.100;5.116;2023-02-08T00:32:23;103726.41;;;1.37;89.36
51876;BME280;34054;52.100;5.116;2023-02-08T00:32:55;103723.03;;;1.24;88.94
51876;BME280;34054;52.100;5.116;2023-02-08T00:33:28;103722.44;;;1.20;89.26
51876;BME280;34054;52.100;5.116;2023-02-08T00:33:59;103728.75;;;1.19;89.14
51876;BME280;34054;52.100;5.116;2023-02-08T00:34:31;103723.41;;;1.19;89.44
51876;BME280;34054;52.100;5.116;2023-02-08T00:35:05;103722.56;;;1.19;89.57
51876;BME280;34054;52.100;5.116;2023-02-08T00:35:38;103712.31;;;1.24;89.19
51876;BME280;34054;52.100;5.116;2023-02-08T00:36:12;103715.59;;;1.28;89.31
51876;BME280;34054;52.100;5.116;2023-02-08T00:36:43;103714.50;;;1.30;88.98
51876;BME280;34054;52.100;5.116;2023-02-08T00:37:16;103709.88;;;1.32;88.99
51876;BME280;34054;52.100;5.116;2023-02-08T00:37:48;103710.34;;;1.37;88.56
51876;BME280;34054;52.100;5.116;2023-02-08T00:38:21;103711.81;;;1.41;88.36
51876;BME280;34054;52.100;5.116;2023-02-08T00:38:53;103702.91;;;1.41;88.06
51876;BME280;34054;52.100;5.116;2023-02-08T00:39:25;103705.72;;;1.39;87.61
51876;BME280;34054;52.100;5.116;2023-02-08T00:39:57;103704.16;;;1.37;87.60
51876;BME280;34054;52.100;5.116;2023-02-08T00:40:32;103701.47;;;1.37;87.85
51876;BME280;34054;52.100;5.116;2023-02-08T00:41:04;103706.22;;;1.22;88.08
51876;BME280;34054;52.100;5.116;2023-02-08T00:41:36;103709.41;;;1.27;88.04
51876;BME280;34054;52.100;5.116;2023-02-08T00:42:08;103705.72;;;1.28;88.28
51876;BME280;34054;52.100;5.116;2023-02-08T00:42:40;103712.09;;;1.16;88.43
51876;BME280;34054;52.100;5.116;2023-02-08T00:43:11;103708.31;;;1.18;88.57
51876;BME280;34054;52.100;5.116;2023-02-08T00:43:44;103687.91;;;1.06;88.68
51876;BME280;34054;52.100;5.116;2023-02-08T00:44:16;103718.41;;;1.15;88.86
51876;BME280;34054;52.100;5.116;2023-02-08T00:44:47;103713.66;;;1.18;88.98
51876;BME280;34054;52.100;5.116;2023-02-08T00:45:20;103709.53;;;1.14;88.77
51876;BME280;34054;52.100;5.116;2023-02-08T00:45:55;103709.66;;;1.13;88.83
51876;BME280;34054;52.100;5.116;2023-02-08T00:46:27;103709.41;;;1.16;89.38
51876;BME280;34054;52.100;5.116;2023-02-08T00:47:00;103701.75;;;1.22;88.97
51876;BME280;34054;52.100;5.116;2023-02-08T00:47:31;103702.81;;;1.31;89.05
51876;BME280;34054;52.100;5.116;2023-02-08T00:48:03;103706.97;;;1.35;88.56
51876;BME280;34054;52.100;5.116;2023-02-08T00:48:35;103706.22;;;1.33;88.75
51876;BME280;34054;52.100;5.116;2023-02-08T00:49:07;103709.63;;;1.35;88.37
51876;BME280;34054;52.100;5.116;2023-02-08T00:49:39;103701.84;;;1.32;88.43
51876;BME280;34054;52.100;5.116;2023-02-08T00:50:11;103705.63;;;1.30;88.37
51876;BME280;34054;52.100;5.116;2023-02-08T00:50:43;103709.13;;;1.30;88.48
51876;BME280;34054;52.100;5.116;2023-02-08T00:51:15;103707.56;;;1.28;88.71
51876;BME280;34054;52.100;5.116;2023-02-08T00:51:47;103709.50;;;1.25;88.71
51876;BME280;34054;52.100;5.116;2023-02-08T00:52:19;103706.59;;;1.29;88.69
51876;BME280;34054;52.100;5.116;2023-02-08T00:52:51;103708.16;;;1.31;88.96
51876;BME280;34054;52.100;5.116;2023-02-08T00:53:25;103709.28;;;1.29;89.21
51876;BME280;34054;52.100;5.116;2023-02-08T00:53:56;103706.72;;;1.27;89.20
51876;BME280;34054;52.100;5.116;2023-02-08T00:54:28;103707.19;;;1.21;89.22
51876;BME280;34054;52.100;5.116;2023-02-08T00:55:01;103707.56;;;1.16;89.66
51876;BME280;34054;52.100;5.116;2023-02-08T00:55:32;103704.91;;;1.16;89.61
51876;BME280;34054;52.100;5.116;2023-02-08T00:56:04;103697.00;;;1.15;89.62
51876;BME280;34054;52.100;5.116;2023-02-08T00:56:38;103708.53;;;1.15;89.56
51876;BME280;34054;52.100;5.116;2023-02-08T00:57:09;103710.97;;;1.18;89.69
51876;BME280;34054;52.100;5.116;2023-02-08T00:57:41;103703.69;;;1.20;89.76
51876;BME280;34054;52.100;5.116;2023-02-08T00:58:12;103707.56;;;1.16;89.67
51876;BME280;34054;52.100;5.116;2023-02-08T00:58:45;103703.31;;;1.14;89.75
51876;BME280;34054;52.100;5.116;2023-02-08T00:59:17;103716.09;;;1.21;89.95
51876;BME280;34054;52.100;5.116;2023-02-08T00:59:48;103704.53;;;1.21;89.68
51876;BME280;34054;52.100;5.116;2023-02-08T01:00:21;103719.88;;;1.19;89.83
51876;BME280;34054;52.100;5.116;2023-02-08T01:00:53;103711.13;;;1.17;89.84
51876;BME280;34054;52.100;5.116;2023-02-08T01:01:25;103713.78;;;1.17;90.02
51876;BME280;34054;52.100;5.116;2023-02-08T01:01:57;103714.25;;;1.22;89.87
51876;BME280;34054;52.100;5.116;2023-02-08T01:02:31;103705.88;;;1.27;89.48
51876;BME280;34054;52.100;5.116;2023-02-08T01:03:03;103700.03;;;1.21;89.48
51876;BME280;34054;52.100;5.116;2023-02-08T01:03:38;103707.94;;;1.23;89.36
51876;BME280;34054;52.100;5.116;2023-02-08T01:04:11;103713.44;;;1.21;89.43
51876;BME280;34054;52.100;5.116;2023-02-08T01:04:44;103708.91;;;1.22;89.41
51876;BME280;34054;52.100;5.116;2023-02-08T01:05:15;103711.13;;;1.17;89.28
51876;BME280;34054;52.100;5.116;2023-02-08T01:05:47;103716.47;;;1.17;89.51
51876;BME280;34054;52.100;5.116;2023-02-08T01:06:20;103715.88;;;1.13;89.76
51876;BME280;34054;52.100;5.116;2023-02-08T01:06:52;103707.94;;;1.12;89.73
51876;BME280;34054;52.100;5.116;2023-02-08T01:07:23;103708.81;;;1.12;89.71
51876;BME280;34054;52.100;5.116;2023-02-08T01:07:56;103714.16;;;1.12;89.89
51876;BME280;34054;52.100;5.116;2023-02-08T01:08:29;103697.50;;;1.08;89.97
51876;BME280;34054;52.100;5.116;2023-02-08T01:09:01;103709.91;;;1.09;89.64
51876;BME280;34054;52.100;5.116;2023-02-08T01:09:34;103705.91;;;1.04;90.17
51876;BME280;34054;52.100;5.116;2023-02-08T01:10:07;103707.69;;;1.15;89.92
51876;BME280;34054;52.100;5.116;2023-02-08T01:10:42;103712.94;;;1.16;89.88
51876;BME280;34054;52.100;5.116;2023-02-08T01:11:16;103718.03;;;1.08;89.83
51876;BME280;34054;52.100;5.116;2023-02-08T01:11:51;103710.63;;;1.12;89.92
51876;BME280;34054;52.100;5.116;2023-02-08T01:12:23;103707.09;;;1.11;89.60
51876;BME280;34054;52.100;5.116;2023-02-08T01:12:56;103716.84;;;1.12;89.68
51876;BME280;34054;52.100;5.116;2023-02-08T01:13:27;103711.72;;;1.09;89.59
51876;BME280;34054;52.100;5.116;2023-02-08T01:13:59;103707.69;;;1.03;89.95
51876;BME280;34054;52.100;5.116;2023-02-08T01:14:33;103700.66;;;1.02;89.67
51876;BME280;34054;52.100;5.116;2023-02-08T01:15:05;103707.47;;;1.06;90.24
51876;BME280;34054;52.100;5.116;2023-02-08T01:15:38;103707.69;;;1.03;90.34
51876;BME280;34054;52.100;5.116;2023-02-08T01:16:12;103708.56;;;1.04;90.29
51876;BME280;34054;52.100;5.116;2023-02-08T01:16:45;103711.25;;;1.04;90.43
51876;BME280;34054;52.100;5.116;2023-02-08T01:17:16;103703.22;;;1.04;90.39
51876;BME280;34054;52.100;5.116;2023-02-08T01:17:52;103709.03;;;1.09;90.51
51876;BME280;34054;52.100;5.116;2023-02-08T01:18:24;103714.06;;;1.02;90.42
51876;BME280;34054;52.100;5.116;2023-02-08T01:18:56;103712.94;;;1.05;90.56
51876;BME280;34054;52.100;5.116;2023-02-08T01:19:30;103705.75;;;1.05;90.23
51876;BME280;34054;52.100;5.116;2023-02-08T01:20:02;103713.56;;;1.08;90.17
51876;BME280;34054;52.100;5.116;2023-02-08T01:20:34;103714.91;;;1.03;90.29
51876;BME280;34054;52.100;5.116;2023-02-08T01:21:09;103719.78;;;0.98;90.48
51876;BME280;34054;52.100;5.116;2023-02-08T01:21:43;103714.28;;;0.88;90.81
51876;BME280;34054;52.100;5.116;2023-02-08T01:22:15;103716.59;;;0.92;90.91
51876;BME280;34054;52.100;5.116;2023-02-08T01:22:48;103719.25;;;0.92;90.82
51876;BME280;34054;52.100;5.116;2023-02-08T01:23:19;103723.28;;;0.98;90.99
51876;BME280;34054;52.100;5.116;2023-02-08T01:23:52;103716.84;;;1.01;90.82
51876;BME280;34054;52.100;5.116;2023-02-08T01:24:25;103723.53;;;1.06;90.88
51876;BME280;34054;52.100;5.116;2023-02-08T01:24:57;103715.25;;;1.09;90.76
51876;BME280;34054;52.100;5.116;2023-02-08T01:25:28;103720.72;;;1.19;90.22
51876;BME280;34054;52.100;5.116;2023-02-08T01:26:01;103715.97;;;1.23;90.12
51876;BME280;34054;52.100;5.116;2023-02-08T01:26:33;103709.78;;;1.22;89.87
51876;BME280;34054;52.100;5.116;2023-02-08T01:27:05;103721.31;;;1.23;89.85
51876;BME280;34054;52.100;5.116;2023-02-08T01:27:37;103723.88;;;1.24;89.67
51876;BME280;34054;52.100;5.116;2023-02-08T01:28:09;103715.97;;;1.23;89.56
51876;BME280;34054;52.100;5.116;2023-02-08T01:28:41;103723.63;;;1.16;89.74
51876;BME280;34054;52.100;5.116;2023-02-08T01:29:13;103723.53;;;1.18;89.77
51876;BME280;34054;52.100;5.116;2023-02-08T01:29:46;103721.09;;;1.15;89.39
51876;BME280;34054;52.100;5.116;2023-02-08T01:30:18;103721.22;;;1.13;89.52
51876;BME280;34054;52.100;5.116;2023-02-08T01:30:49;103713.06;;;1.15;89.76
51876;BME280;34054;52.100;5.116;2023-02-08T01:31:25;103716.56;;;1.15;89.82
51876;BME280;34054;52.100;5.116;2023-02-08T01:31:59;103713.06;;;1.15;89.94
51876;BME280;34054;52.100;5.116;2023-02-08T01:32:31;103719.00;;;1.18;89.73
51876;BME280;34054;52.100;5.116;2023-02-08T01:33:03;103724.97;;;1.22;89.79
51876;BME280;34054;52.100;5.116;2023-02-08T01:33:35;103716.44;;;1.28;89.54
51876;BME280;34054;52.100;5.116;2023-02-08T01:34:09;103710.09;;;1.29;89.53
51876;BME280;34054;52.100;5.116;2023-02-08T01:34:41;103716.69;;;1.36;89.25
51876;BME280;34054;52.100;5.116;2023-02-08T01:35:13;103713.53;;;1.31;89.22
51876;BME280;34054;52.100;5.116;2023-02-08T01:35:49;103710.00;;;1.31;89.10
51876;BME280;34054;52.100;5.116;2023-02-08T01:36:22;103714.25;;;1.33;88.99
51876;BME280;34054;52.100;5.116;2023-02-08T01:36:54;103713.88;;;1.38;88.61
51876;BME280;34054;52.100;5.116;2023-02-08T01:37:27;103709.88;;;1.32;88.60
51876;BME280;34054;52.100;5.116;2023-02-08T01:37:58;103704.28;;;1.24;88.71
51876;BME280;34054;52.100;5.116;2023-02-08T01:38:31;103707.94;;;1.23;88.91
51876;BME280;34054;52.100;5.116;2023-02-08T01:39:06;103703.91;;;1.29;88.78
51876;BME280;34054;52.100;5.116;2023-02-08T01:39:40;103703.91;;;1.29;88.60
51876;BME280;34054;52.100;5.116;2023-02-08T01:40:13;103705.50;;;1.31;88.14
51876;BME280;34054;52.100;5.116;2023-02-08T01:40:44;103701.84;;;1.32;88.20
51876;BME280;34054;52.100;5.116;2023-02-08T01:41:18;103701.59;;;1.35;87.80
51876;BME280;34054;52.100;5.116;2023-02-08T01:41:52;103702.56;;;1.34;87.85
51876;BME280;34054;52.100;5.116;2023-02-08T01:42:24;103698.31;;;1.32;87.77
51876;BME280;34054;52.100;5.116;2023-02-08T01:42:56;103701.97;;;1.19;87.82
51876;BME280;34054;52.100;5.116;2023-02-08T01:43:30;103705.53;;;1.08;88.54
51876;BME280;34054;52.100;5.116;2023-02-08T01:44:06;103703.94;;;1.06;88.89
51876;BME280;34054;52.100;5.116;2023-02-08T01:45:23;103699.22;;;1.09;88.85
51876;BME280;34054;52.100;5.116;2023-02-08T01:45:57;103700.91;;;1.11;89.13
51876;BME280;34054;52.100;5.116;2023-02-08T01:46:30;103693.84;;;1.09;89.25
51876;BME280;34054;52.100;5.116;2023-02-08T01:47:03;103695.66;;;1.20;88.93
51876;BME280;34054;52.100;5.116;2023-02-08T01:47:35;103697.97;;;1.25;88.70
51876;BME280;34054;52.100;5.116;2023-02-08T01:48:12;103697.00;;;1.26;88.75
51876;BME280;34054;52.100;5.116;2023-02-08T01:48:48;103696.75;;;1.18;88.52
51876;BME280;34054;52.100;5.116;2023-02-08T01:49:24;103688.59;;;1.19;88.39
51876;BME280;34054;52.100;5.116;2023-02-08T01:49:59;103690.91;;;1.24;88.60
51876;BME280;34054;52.100;5.116;2023-02-08T01:50:35;103691.38;;;1.29;88.37
51876;BME280;34054;52.100;5.116;2023-02-08T01:51:19;103689.66;;;1.28;88.20
51876;BME280;34054;52.100;5.116;2023-02-08T01:51:55;103691.13;;;1.32;88.11
51876;BME280;34054;52.100;5.116;2023-02-08T01:52:31;103691.97;;;1.33;88.04
51876;BME280;34054;52.100;5.116;2023-02-08T01:53:03;103694.31;;;1.26;87.90
51876;BME280;34054;52.100;5.116;2023-02-08T01:53:36;103702.06;;;1.29;87.96
51876;BME280;34054;52.100;5.116;2023-02-08T01:54:10;103691.75;;;1.24;88.33
51876;BME280;34054;52.100;5.116;2023-02-08T01:54:52;103686.66;;;1.21;88.11
51876;BME280;34054;52.100;5.116;2023-02-08T01:55:30;103700.38;;;1.28;88.42
51876;BME280;34054;52.100;5.116;2023-02-08T01:56:08;103701.25;;;1.29;88.19
51876;BME280;34054;52.100;5.116;2023-02-08T01:56:46;103694.31;;;1.26;88.46
51876;BME280;34054;52.100;5.116;2023-02-08T01:57:19;103696.88;;;1.16;88.62
51876;BME280;34054;52.100;5.116;2023-02-08T01:57:53;103700.66;;;1.14;88.74
51876;BME280;34054;52.100;5.116;2023-02-08T01:58:31;103700.16;;;1.08;88.85
51876;BME280;34054;52.100;5.116;2023-02-08T01:59:10;103701.66;;;1.01;89.00
51876;BME280;34054;52.100;5.116;2023-02-08T01:59:51;103696.53;;;0.98;89.03
51876;BME280;34054;52.100;5.116;2023-02-08T02:00:25;103703.59;;;0.99;89.62
51876;BME280;34054;52.100;5.116;2023-02-08T02:00:58;103701.88;;;0.98;89.80
51876;BME280;34054;52.100;5.116;2023-02-08T02:01:31;103700.03;;;0.99;90.10
51876;BME280;34054;52.100;5.116;2023-02-08T02:02:07;103706.25;;;0.99;90.11
51876;BME280;34054;52.100;5.116;2023-02-08T02:02:43;103699.06;;;1.00;90.33
51876;BME280;34054;52.100;5.116;2023-02-08T02:03:20;103703.81;;;0.96;90.75
51876;BME280;34054;52.100;5.116;2023-02-08T02:03:54;103708.94;;;0.99;90.57
51876;BME280;34054;52.100;5.116;2023-02-08T02:04:26;103708.69;;;1.02;90.81
51876;BME280;34054;52.100;5.116;2023-02-08T02:05:00;103688.63;;;0.97;90.42
51876;BME280;34054;52.100;5.116;2023-02-08T02:05:38;103706.72;;;1.04;90.31
51876;BME280;34054;52.100;5.116;2023-02-08T02:06:16;103700.41;;;1.05;90.41
51876;BME280;34054;52.100;5.116;2023-02-08T02:06:53;103701.16;;;1.07;90.01
51876;BME280;34054;52.100;5.116;2023-02-08T02:07:29;103710.38;;;1.03;90.15
51876;BME280;34054;52.100;5.116;2023-02-08T02:08:02;103707.47;;;1.06;90.38
51876;BME280;34054;52.100;5.116;2023-02-08T02:08:36;103692.97;;;1.09;90.01
51876;BME280;34054;52.100;5.116;2023-02-08T02:09:15;103700.53;;;1.04;90.45
51876;BME280;34054;52.100;5.116;2023-02-08T02:09:56;103692.66;;;1.02;90.51
51876;BME280;34054;52.100;5.116;2023-02-08T02:10:34;103699.44;;;1.06;90.49
51876;BME280;34054;52.100;5.116;2023-02-08T02:11:08;103701.28;;;1.06;90.18
51876;BME280;34054;52.100;5.116;2023-02-08T02:11:41;103705.28;;;1.00;90.45
51876;BME280;34054;52.100;5.116;2023-02-08T02:12:14;103698.38;;;0.98;90.35
51876;BME280;34054;52.100;5.116;2023-02-08T02:12:49;103694.44;;;1.02;89.98
51876;BME280;34054;52.100;5.116;2023-02-08T02:13:23;103699.06;;;1.00;89.99
51876;BME280;34054;52.100;5.116;2023-02-08T02:13:56;103705.38;;;0.99;90.10
51876;BME280;34054;52.100;5.116;2023-02-08T02:14:29;103690.69;;;0.93;89.91
51876;BME280;34054;52.100;5.116;2023-02-08T02:15:02;103691.16;;;0.87;90.17
51876;BME280;34054;52.100;5.116;2023-02-08T02:15:34;103698.81;;;0.91;90.03
51876;BME280;34054;52.100;5.116;2023-02-08T02:16:07;103687.28;;;0.91;90.27
51876;BME280;34054;52.100;5.116;2023-02-08T02:16:38;103689.97;;;0.91;90.18
51876;BME280;34054;52.100;5.116;2023-02-08T02:17:12;103689.09;;;0.90;90.19
51876;BME280;34054;52.100;5.116;2023-02-08T02:17:46;103696.78;;;0.84;90.51
51876;BME280;34054;52.100;5.116;2023-02-08T02:18:22;103689.34;;;0.87;90.58
51876;BME280;34054;52.100;5.116;2023-02-08T02:18:57;103690.69;;;0.93;90.44
51876;BME280;34054;52.100;5.116;2023-02-08T02:19:37;103686.53;;;0.77;90.69
51876;BME280;34054;52.100;5.116;2023-02-08T02:20:23;103685.34;;;0.82;90.69
51876;BME280;34054;52.100;5.116;2023-02-08T02:21:24;103681.94;;;0.80;91.06
51876;BME280;34054;52.100;5.116;2023-02-08T02:22:34;103685.69;;;0.77;90.91
51876;BME280;34054;52.100;5.116;2023-02-08T02:25:13;103685.09;;;0.73;91.75
51876;BME280;34054;52.100;5.116;2023-02-08T02:26:35;103685.31;;;0.70;92.04
51876;BME280;34054;52.100;5.116;2023-02-08T02:27:38;103684.13;;;0.74;91.65
51876;BME280;34054;52.100;5.116;2023-02-08T02:28:46;103692.13;;;0.63;92.06
51876;BME280;34054;52.100;5.116;2023-02-08T02:30:09;103687.41;;;0.55;92.11
51876;BME280;34054;52.100;5.116;2023-02-08T02:32:47;103685.81;;;0.64;92.80
51876;BME280;34054;52.100;5.116;2023-02-08T02:33:42;103678.03;;;0.61;92.87
51876;BME280;34054;52.100;5.116;2023-02-08T02:34:33;103684.47;;;0.58;92.87
51876;BME280;34054;52.100;5.116;2023-02-08T02:35:15;103681.66;;;0.60;92.90
51876;BME280;34054;52.100;5.116;2023-02-08T02:35:58;103680.47;;;0.64;92.74
51876;BME280;34054;52.100;5.116;2023-02-08T02:36:38;103674.97;;;0.66;92.78
51876;BME280;34054;52.100;5.116;2023-02-08T02:37:28;103680.94;;;0.69;92.65
51876;BME280;34054;52.100;5.116;2023-02-08T02:38:13;103677.31;;;0.70;92.46
51876;BME280;34054;52.100;5.116;2023-02-08T02:38:59;103677.53;;;0.78;92.51
51876;BME280;34054;52.100;5.116;2023-02-08T02:39:49;103671.97;;;0.59;91.93
51876;BME280;34054;52.100;5.116;2023-02-08T02:40:36;103680.34;;;0.66;92.20
51876;BME280;34054;52.100;5.116;2023-02-08T02:41:27;103676.94;;;0.64;92.19
51876;BME280;34054;52.100;5.116;2023-02-08T02:42:28;103682.66;;;0.70;92.33
51876;BME280;34054;52.100;5.116;2023-02-08T02:43:32;103677.44;;;0.80;91.94
51876;BME280;34054;52.100;5.116;2023-02-08T02:44:17;103675.97;;;0.76;91.94
51876;BME280;34054;52.100;5.116;2023-02-08T02:45:04;103679.50;;;0.88;91.37
51876;BME280;34054;52.100;5.116;2023-02-08T02:45:48;103671.09;;;0.81;91.40
51876;BME280;34054;52.100;5.116;2023-02-08T02:46:32;103674.13;;;0.88;91.43
51876;BME280;34054;52.100;5.116;2023-02-08T02:47:15;103675.63;;;0.92;90.95
51876;BME280;34054;52.100;5.116;2023-02-08T02:48:01;103674.63;;;0.93;90.32
51876;BME280;34054;52.100;5.116;2023-02-08T02:48:44;103676.56;;;0.80;90.67
51876;BME280;34054;52.100;5.116;2023-02-08T02:49:27;103669.41;;;0.80;90.64
51876;BME280;34054;52.100;5.116;2023-02-08T02:50:11;103673.03;;;0.90;90.18
51876;BME280;34054;52.100;5.116;2023-02-08T02:50:52;103661.25;;;0.93;89.99
51876;BME280;34054;52.100;5.116;2023-02-08T02:51:36;103671.97;;;0.93;89.97
51876;BME280;34054;52.100;5.116;2023-02-08T02:52:18;103675.25;;;0.85;90.13
51876;BME280;34054;52.100;5.116;2023-02-08T02:52:59;103672.19;;;0.78;90.22
51876;BME280;34054;52.100;5.116;2023-02-08T02:53:41;103668.91;;;0.75;90.61
51876;BME280;34054;52.100;5.116;2023-02-08T02:54:19;103671.47;;;0.76;90.36
51876;BME280;34054;52.100;5.116;2023-02-08T02:54:58;103677.81;;;0.75;90.60
51876;BME280;34054;52.100;5.116;2023-02-08T02:55:41;103667.47;;;0.71;90.71
51876;BME280;34054;52.100;5.116;2023-02-08T02:56:20;103665.50;;;0.73;90.96
51876;BME280;34054;52.100;5.116;2023-02-08T02:56:59;103668.91;;;0.75;90.69
51876;BME280;34054;52.100;5.116;2023-02-08T02:57:34;103664.06;;;0.80;90.64
51876;BME280;34054;52.100;5.116;2023-02-08T02:58:09;103654.78;;;0.73;90.67
51876;BME280;34054;52.100;5.116;2023-02-08T02:58:44;103658.72;;;0.80;90.76
51876;BME280;34054;52.100;5.116;2023-02-08T02:59:17;103656.75;;;0.71;90.63
51876;BME280;34054;52.100;5.116;2023-02-08T02:59:50;103658.34;;;0.73;90.67
51876;BME280;34054;52.100;5.116;2023-02-08T03:00:25;103661.63;;;0.77;90.46
51876;BME280;34054;52.100;5.116;2023-02-08T03:00:58;103652.25;;;0.71;90.44
51876;BME280;34054;52.100;5.116;2023-02-08T03:01:31;103657.88;;;0.68;90.55
51876;BME280;34054;52.100;5.116;2023-02-08T03:02:04;103656.75;;;0.71;90.67
51876;BME280;34054;52.100;5.116;2023-02-08T03:02:37;103662.72;;;0.74;90.75
51876;BME280;34054;52.100;5.116;2023-02-08T03:03:16;103663.47;;;0.76;90.53
51876;BME280;34054;52.100;5.116;2023-02-08T03:03:53;103666.00;;;0.78;90.63
51876;BME280;34054;52.100;5.116;2023-02-08T03:04:46;103660.75;;;0.88;90.40
51876;BME280;34054;52.100;5.116;2023-02-08T03:05:20;103662.47;;;0.89;90.08
51876;BME280;34054;52.100;5.116;2023-02-08T03:05:56;103663.69;;;0.85;89.99
51876;BME280;34054;52.100;5.116;2023-02-08T03:06:40;103658.59;;;0.82;89.89
51876;BME280;34054;52.100;5.116;2023-02-08T03:07:46;103656.50;;;0.74;89.86
51876;BME280;34054;52.100;5.116;2023-02-08T03:08:50;103660.16;;;0.73;89.99
51876;BME280;34054;52.100;5.116;2023-02-08T03:09:46;103660.41;;;0.70;89.74
51876;BME280;34054;52.100;5.116;2023-02-08T03:10:52;103654.56;;;0.76;89.82
51876;BME280;34054;52.100;5.116;2023-02-08T03:11:38;103657.25;;;0.76;89.75
51876;BME280;34054;52.100;5.116;2023-02-08T03:12:29;103650.78;;;0.90;89.66
51876;BME280;34054;52.100;5.116;2023-02-08T03:13:16;103654.34;;;0.79;89.30
51876;BME280;34054;52.100;5.116;2023-02-08T03:14:18;103652.03;;;0.74;89.72
51876;BME280;34054;52.100;5.116;2023-02-08T03:15:11;103652.13;;;0.73;89.75